sensor_id;sensor_type;location;lat;lon;timestamp;P1;durP1;ratioP1;P2;durP2;ratioP2
12687;SDS011;6408;59.388;17.798;2023-07-28T00:02:14;3.30;;;1.70;;
12687;SDS011;6408;59.388;17.798;2023-07-28T00:04:41;3.13;;;1.42;;
12687;SDS011;6408;59.388;17.798;2023-07-28T00:07:08;3.60;;;1.73;;
12687;SDS011;6408;59.388;17.798;2023-07-28T00:09:36;2.40;;;1.55;;
12687;SDS011;6408;59.388;17.798;2023-07-28T00:12:04;3.28;;;1.73;;
12687;SDS011;6408;59.388;17.798;2023-07-28T00:14:32;3.67;;;1.65;;
12687;SDS011;6408;59.388;17.798;2023-07-28T00:16:59;2.90;;;1.48;;
12687;SDS011;6408;59.388;17.798;2023-07-28T00:19:28;2.13;;;1.45;;
12687;SDS011;6408;59.388;17.798;2023-07-28T00:21:56;2.17;;;1.25;;
12687;SDS011;6408;59.388;17.798;2023-07-28T00:24:23;2.22;;;1.30;;
12687;SDS011;6408;59.388;17.798;2023-07-28T00:26:51;1.30;;;1.20;;
12687;SDS011;6408;59.388;17.798;2023-07-28T00:29:18;2.05;;;1.40;;
12687;SDS011;6408;59.388;17.798;2023-07-28T00:31:45;1.65;;;1.00;;
12687;SDS011;6408;59.388;17.798;2023-07-28T00:34:13;2.20;;;1.25;;
12687;SDS011;6408;59.388;17.798;2023-07-28T00:36:42;1.73;;;1.20;;
12687;SDS011;6408;59.388;17.798;2023-07-28T00:39:09;3.30;;;1.60;;
12687;SDS011;6408;59.388;17.798;2023-07-28T00:41:37;1.67;;;1.05;;
12687;SDS011;6408;59.388;17.798;2023-07-28T00:44:04;1.40;;;1.20;;
12687;SDS011;6408;59.388;17.798;2023-07-28T00:46:32;1.95;;;1.40;;
12687;SDS011;6408;59.388;17.798;2023-07-28T00:48:59;2.15;;;1.30;;
12687;SDS011;6408;59.388;17.798;2023-07-28T00:51:29;2.42;;;1.20;;
12687;SDS011;6408;59.388;17.798;2023-07-28T00:53:59;2.15;;;1.23;;
12687;SDS011;6408;59.388;17.798;2023-07-28T00:56:29;2.58;;;1.17;;
12687;SDS011;6408;59.388;17.798;2023-07-28T00:58:56;1.95;;;1.30;;
12687;SDS011;6408;59.388;17.798;2023-07-28T01:01:24;1.92;;;1.10;;
12687;SDS011;6408;59.388;17.798;2023-07-28T01:03:52;2.15;;;1.40;;
12687;SDS011;6408;59.388;17.798;2023-07-28T01:06:20;4.45;;;1.23;;
12687;SDS011;6408;59.388;17.798;2023-07-28T01:08:57;3.92;;;1.27;;
12687;SDS011;6408;59.388;17.798;2023-07-28T01:11:29;3.38;;;1.40;;
12687;SDS011;6408;59.388;17.798;2023-07-28T01:13:57;1.77;;;1.35;;
12687;SDS011;6408;59.388;17.798;2023-07-28T01:16:24;2.75;;;1.48;;
12687;SDS011;6408;59.388;17.798;2023-07-28T01:18:52;2.38;;;1.58;;
12687;SDS011;6408;59.388;17.798;2023-07-28T01:21:20;1.95;;;1.33;;
12687;SDS011;6408;59.388;17.798;2023-07-28T01:24:01;3.38;;;1.40;;
12687;SDS011;6408;59.388;17.798;2023-07-28T01:26:40;1.80;;;1.13;;
12687;SDS011;6408;59.388;17.798;2023-07-28T01:29:08;2.35;;;1.17;;
12687;SDS011;6408;59.388;17.798;2023-07-28T01:31:37;5.25;;;1.30;;
12687;SDS011;6408;59.388;17.798;2023-07-28T01:34:06;1.40;;;1.20;;
12687;SDS011;6408;59.388;17.798;2023-07-28T01:36:33;1.40;;;1.30;;
12687;SDS011;6408;59.388;17.798;2023-07-28T01:39:01;1.85;;;1.20;;
12687;SDS011;6408;59.388;17.798;2023-07-28T01:41:28;2.30;;;1.20;;
12687;SDS011;6408;59.388;17.798;2023-07-28T01:43:57;1.52;;;1.15;;
12687;SDS011;6408;59.388;17.798;2023-07-28T01:46:25;1.70;;;1.42;;
12687;SDS011;6408;59.388;17.798;2023-07-28T01:48:52;2.72;;;1.23;;
12687;SDS011;6408;59.388;17.798;2023-07-28T01:51:20;2.10;;;1.20;;
12687;SDS011;6408;59.388;17.798;2023-07-28T01:53:47;2.33;;;1.50;;
12687;SDS011;6408;59.388;17.798;2023-07-28T01:56:15;1.83;;;1.20;;
12687;SDS011;6408;59.388;17.798;2023-07-28T01:58:42;1.67;;;1.23;;
12687;SDS011;6408;59.388;17.798;2023-07-28T02:01:14;2.78;;;1.17;;
12687;SDS011;6408;59.388;17.798;2023-07-28T02:03:41;3.88;;;1.38;;
12687;SDS011;6408;59.388;17.798;2023-07-28T02:06:09;2.55;;;1.52;;
12687;SDS011;6408;59.388;17.798;2023-07-28T02:08:36;1.77;;;1.27;;
12687;SDS011;6408;59.388;17.798;2023-07-28T02:11:04;2.63;;;1.58;;
12687;SDS011;6408;59.388;17.798;2023-07-28T02:13:31;1.60;;;1.40;;
12687;SDS011;6408;59.388;17.798;2023-07-28T02:15:58;1.73;;;1.40;;
12687;SDS011;6408;59.388;17.798;2023-07-28T02:18:28;2.50;;;1.42;;
12687;SDS011;6408;59.388;17.798;2023-07-28T02:20:55;1.40;;;1.30;;
12687;SDS011;6408;59.388;17.798;2023-07-28T02:23:23;1.42;;;1.30;;
12687;SDS011;6408;59.388;17.798;2023-07-28T02:25:50;4.25;;;1.42;;
12687;SDS011;6408;59.388;17.798;2023-07-28T02:28:18;3.88;;;1.65;;
12687;SDS011;6408;59.388;17.798;2023-07-28T02:30:45;1.58;;;1.30;;
12687;SDS011;6408;59.388;17.798;2023-07-28T02:33:12;3.47;;;2.25;;
12687;SDS011;6408;59.388;17.798;2023-07-28T02:35:41;2.63;;;1.48;;
12687;SDS011;6408;59.388;17.798;2023-07-28T02:38:09;2.00;;;1.50;;
12687;SDS011;6408;59.388;17.798;2023-07-28T02:40:36;2.47;;;1.40;;
12687;SDS011;6408;59.388;17.798;2023-07-28T02:43:04;3.17;;;1.50;;
12687;SDS011;6408;59.388;17.798;2023-07-28T02:45:31;3.95;;;1.50;;
12687;SDS011;6408;59.388;17.798;2023-07-28T02:47:59;1.92;;;1.38;;
12687;SDS011;6408;59.388;17.798;2023-07-28T02:50:26;2.40;;;1.48;;
12687;SDS011;6408;59.388;17.798;2023-07-28T02:52:55;2.38;;;1.50;;
12687;SDS011;6408;59.388;17.798;2023-07-28T02:55:22;2.42;;;1.50;;
12687;SDS011;6408;59.388;17.798;2023-07-28T02:57:50;3.60;;;1.48;;
12687;SDS011;6408;59.388;17.798;2023-07-28T03:00:17;1.80;;;1.48;;
12687;SDS011;6408;59.388;17.798;2023-07-28T03:02:45;3.00;;;1.52;;
12687;SDS011;6408;59.388;17.798;2023-07-28T03:05:12;3.15;;;1.70;;
12687;SDS011;6408;59.388;17.798;2023-07-28T03:07:40;2.33;;;1.60;;
12687;SDS011;6408;59.388;17.798;2023-07-28T03:10:10;3.17;;;1.42;;
12687;SDS011;6408;59.388;17.798;2023-07-28T03:12:41;4.00;;;1.83;;
12687;SDS011;6408;59.388;17.798;2023-07-28T03:15:08;2.88;;;1.33;;
12687;SDS011;6408;59.388;17.798;2023-07-28T03:17:36;3.72;;;1.80;;
12687;SDS011;6408;59.388;17.798;2023-07-28T03:20:04;2.97;;;1.92;;
12687;SDS011;6408;59.388;17.798;2023-07-28T03:22:31;4.60;;;2.13;;
12687;SDS011;6408;59.388;17.798;2023-07-28T03:24:59;2.22;;;1.40;;
12687;SDS011;6408;59.388;17.798;2023-07-28T03:27:28;2.80;;;1.73;;
12687;SDS011;6408;59.388;17.798;2023-07-28T03:29:55;3.10;;;1.70;;
12687;SDS011;6408;59.388;17.798;2023-07-28T03:32:22;5.65;;;1.95;;
12687;SDS011;6408;59.388;17.798;2023-07-28T03:34:50;1.92;;;1.50;;
12687;SDS011;6408;59.388;17.798;2023-07-28T03:37:17;4.72;;;1.80;;
12687;SDS011;6408;59.388;17.798;2023-07-28T03:39:45;2.88;;;1.60;;
12687;SDS011;6408;59.388;17.798;2023-07-28T03:42:12;3.47;;;1.50;;
12687;SDS011;6408;59.388;17.798;2023-07-28T03:44:42;2.05;;;1.52;;
12687;SDS011;6408;59.388;17.798;2023-07-28T03:47:10;2.45;;;1.48;;
12687;SDS011;6408;59.388;17.798;2023-07-28T03:49:37;2.97;;;1.80;;
12687;SDS011;6408;59.388;17.798;2023-07-28T03:52:05;2.55;;;1.55;;
12687;SDS011;6408;59.388;17.798;2023-07-28T03:54:32;3.22;;;1.90;;
12687;SDS011;6408;59.388;17.798;2023-07-28T03:57:00;3.70;;;1.60;;
12687;SDS011;6408;59.388;17.798;2023-07-28T03:59:27;3.42;;;1.80;;
12687;SDS011;6408;59.388;17.798;2023-07-28T04:01:56;2.53;;;1.48;;
12687;SDS011;6408;59.388;17.798;2023-07-28T04:04:24;2.35;;;1.60;;
12687;SDS011;6408;59.388;17.798;2023-07-28T04:06:51;2.08;;;1.50;;
12687;SDS011;6408;59.388;17.798;2023-07-28T04:09:19;2.15;;;1.40;;
12687;SDS011;6408;59.388;17.798;2023-07-28T04:11:47;2.17;;;1.48;;
12687;SDS011;6408;59.388;17.798;2023-07-28T04:14:14;2.10;;;1.55;;
12687;SDS011;6408;59.388;17.798;2023-07-28T04:16:42;4.10;;;1.60;;
12687;SDS011;6408;59.388;17.798;2023-07-28T04:19:11;2.10;;;1.50;;
12687;SDS011;6408;59.388;17.798;2023-07-28T04:21:38;1.95;;;1.63;;
12687;SDS011;6408;59.388;17.798;2023-07-28T04:24:06;4.47;;;1.77;;
12687;SDS011;6408;59.388;17.798;2023-07-28T04:26:33;1.42;;;1.27;;
12687;SDS011;6408;59.388;17.798;2023-07-28T04:29:01;3.00;;;1.60;;
12687;SDS011;6408;59.388;17.798;2023-07-28T04:31:28;1.60;;;1.48;;
12687;SDS011;6408;59.388;17.798;2023-07-28T04:33:56;1.50;;;1.40;;
12687;SDS011;6408;59.388;17.798;2023-07-28T04:36:24;1.60;;;1.45;;
12687;SDS011;6408;59.388;17.798;2023-07-28T04:38:52;2.03;;;1.73;;
12687;SDS011;6408;59.388;17.798;2023-07-28T04:41:20;3.03;;;1.50;;
12687;SDS011;6408;59.388;17.798;2023-07-28T04:43:47;2.05;;;1.30;;
12687;SDS011;6408;59.388;17.798;2023-07-28T04:46:15;5.78;;;1.70;;
12687;SDS011;6408;59.388;17.798;2023-07-28T04:48:42;1.60;;;1.45;;
12687;SDS011;6408;59.388;17.798;2023-07-28T04:51:10;1.70;;;1.40;;
12687;SDS011;6408;59.388;17.798;2023-07-28T04:53:39;1.90;;;1.50;;
12687;SDS011;6408;59.388;17.798;2023-07-28T04:56:06;2.80;;;1.70;;
12687;SDS011;6408;59.388;17.798;2023-07-28T04:58:33;3.00;;;1.58;;
12687;SDS011;6408;59.388;17.798;2023-07-28T05:01:01;5.18;;;1.80;;
12687;SDS011;6408;59.388;17.798;2023-07-28T05:03:28;1.90;;;1.65;;
12687;SDS011;6408;59.388;17.798;2023-07-28T05:05:56;1.92;;;1.60;;
12687;SDS011;6408;59.388;17.798;2023-07-28T05:08:23;1.92;;;1.52;;
12687;SDS011;6408;59.388;17.798;2023-07-28T05:10:52;2.33;;;1.50;;
12687;SDS011;6408;59.388;17.798;2023-07-28T05:13:19;2.65;;;1.42;;
12687;SDS011;6408;59.388;17.798;2023-07-28T05:15:47;2.30;;;1.60;;
12687;SDS011;6408;59.388;17.798;2023-07-28T05:18:15;4.38;;;1.60;;
12687;SDS011;6408;59.388;17.798;2023-07-28T05:20:42;1.65;;;1.38;;
12687;SDS011;6408;59.388;17.798;2023-07-28T05:23:10;2.17;;;1.80;;
12687;SDS011;6408;59.388;17.798;2023-07-28T05:25:37;1.50;;;1.40;;
12687;SDS011;6408;59.388;17.798;2023-07-28T05:28:06;2.22;;;1.40;;
12687;SDS011;6408;59.388;17.798;2023-07-28T05:30:33;2.15;;;1.55;;
12687;SDS011;6408;59.388;17.798;2023-07-28T05:33:01;1.27;;;1.15;;
12687;SDS011;6408;59.388;17.798;2023-07-28T05:35:28;1.80;;;1.30;;
12687;SDS011;6408;59.388;17.798;2023-07-28T05:37:55;2.03;;;1.60;;
12687;SDS011;6408;59.388;17.798;2023-07-28T05:40:23;1.40;;;1.30;;
12687;SDS011;6408;59.388;17.798;2023-07-28T05:42:50;1.30;;;1.20;;
12687;SDS011;6408;59.388;17.798;2023-07-28T05:45:19;1.30;;;1.20;;
12687;SDS011;6408;59.388;17.798;2023-07-28T05:47:46;1.58;;;1.45;;
12687;SDS011;6408;59.388;17.798;2023-07-28T05:50:14;1.98;;;1.30;;
12687;SDS011;6408;59.388;17.798;2023-07-28T05:52:41;1.50;;;1.40;;
12687;SDS011;6408;59.388;17.798;2023-07-28T05:55:09;1.90;;;1.23;;
12687;SDS011;6408;59.388;17.798;2023-07-28T05:57:37;1.75;;;1.20;;
12687;SDS011;6408;59.388;17.798;2023-07-28T06:00:05;1.73;;;1.50;;
12687;SDS011;6408;59.388;17.798;2023-07-28T06:02:36;1.30;;;1.20;;
12687;SDS011;6408;59.388;17.798;2023-07-28T06:05:04;1.98;;;1.25;;
12687;SDS011;6408;59.388;17.798;2023-07-28T06:07:32;1.30;;;1.20;;
12687;SDS011;6408;59.388;17.798;2023-07-28T06:10:00;1.38;;;1.20;;
12687;SDS011;6408;59.388;17.798;2023-07-28T06:12:27;1.55;;;1.23;;
12687;SDS011;6408;59.388;17.798;2023-07-28T06:14:55;1.65;;;1.38;;
12687;SDS011;6408;59.388;17.798;2023-07-28T06:17:23;2.03;;;1.38;;
12687;SDS011;6408;59.388;17.798;2023-07-28T06:19:54;1.40;;;1.30;;
12687;SDS011;6408;59.388;17.798;2023-07-28T06:22:21;2.92;;;1.50;;
12687;SDS011;6408;59.388;17.798;2023-07-28T06:24:49;1.88;;;1.20;;
12687;SDS011;6408;59.388;17.798;2023-07-28T06:27:16;1.40;;;1.20;;
12687;SDS011;6408;59.388;17.798;2023-07-28T06:29:44;1.85;;;1.02;;
12687;SDS011;6408;59.388;17.798;2023-07-28T06:32:12;1.13;;;1.10;;
12687;SDS011;6408;59.388;17.798;2023-07-28T06:34:39;1.85;;;1.30;;
12687;SDS011;6408;59.388;17.798;2023-07-28T06:37:08;1.25;;;1.15;;
12687;SDS011;6408;59.388;17.798;2023-07-28T06:39:35;1.50;;;1.40;;
12687;SDS011;6408;59.388;17.798;2023-07-28T06:42:03;1.65;;;1.30;;
12687;SDS011;6408;59.388;17.798;2023-07-28T06:44:31;1.20;;;1.10;;
12687;SDS011;6408;59.388;17.798;2023-07-28T06:46:58;1.40;;;1.20;;
12687;SDS011;6408;59.388;17.798;2023-07-28T06:49:26;1.00;;;1.00;;
12687;SDS011;6408;59.388;17.798;2023-07-28T06:51:53;1.00;;;0.90;;
12687;SDS011;6408;59.388;17.798;2023-07-28T06:54:23;1.50;;;1.25;;
12687;SDS011;6408;59.388;17.798;2023-07-28T06:56:50;1.10;;;1.00;;
12687;SDS011;6408;59.388;17.798;2023-07-28T06:59:17;2.05;;;1.17;;
12687;SDS011;6408;59.388;17.798;2023-07-28T07:01:45;1.17;;;1.08;;
12687;SDS011;6408;59.388;17.798;2023-07-28T07:04:12;3.90;;;1.10;;
12687;SDS011;6408;59.388;17.798;2023-07-28T07:06:39;1.38;;;1.08;;
12687;SDS011;6408;59.388;17.798;2023-07-28T07:09:07;3.03;;;1.10;;
12687;SDS011;6408;59.388;17.798;2023-07-28T07:11:36;1.30;;;0.90;;
12687;SDS011;6408;59.388;17.798;2023-07-28T07:14:04;1.00;;;1.00;;
12687;SDS011;6408;59.388;17.798;2023-07-28T07:16:31;1.13;;;1.02;;
12687;SDS011;6408;59.388;17.798;2023-07-28T07:18:59;1.67;;;1.10;;
12687;SDS011;6408;59.388;17.798;2023-07-28T07:21:26;2.42;;;1.20;;
12687;SDS011;6408;59.388;17.798;2023-07-28T07:23:54;1.27;;;1.00;;
12687;SDS011;6408;59.388;17.798;2023-07-28T07:26:22;2.03;;;1.17;;
12687;SDS011;6408;59.388;17.798;2023-07-28T07:28:51;1.60;;;1.10;;
12687;SDS011;6408;59.388;17.798;2023-07-28T07:31:19;1.23;;;1.13;;
12687;SDS011;6408;59.388;17.798;2023-07-28T07:33:46;1.77;;;1.00;;
12687;SDS011;6408;59.388;17.798;2023-07-28T07:36:14;1.30;;;1.20;;
12687;SDS011;6408;59.388;17.798;2023-07-28T07:38:41;1.95;;;1.13;;
12687;SDS011;6408;59.388;17.798;2023-07-28T07:41:11;1.20;;;1.13;;
12687;SDS011;6408;59.388;17.798;2023-07-28T07:43:41;1.48;;;1.08;;
12687;SDS011;6408;59.388;17.798;2023-07-28T07:46:10;1.42;;;1.00;;
12687;SDS011;6408;59.388;17.798;2023-07-28T07:48:37;2.92;;;1.25;;
12687;SDS011;6408;59.388;17.798;2023-07-28T07:51:05;1.20;;;1.10;;
12687;SDS011;6408;59.388;17.798;2023-07-28T07:53:33;1.20;;;1.10;;
12687;SDS011;6408;59.388;17.798;2023-07-28T07:56:01;1.75;;;1.45;;
12687;SDS011;6408;59.388;17.798;2023-07-28T07:58:29;1.15;;;1.10;;
12687;SDS011;6408;59.388;17.798;2023-07-28T08:00:57;1.20;;;1.10;;
12687;SDS011;6408;59.388;17.798;2023-07-28T08:03:26;1.10;;;1.00;;
12687;SDS011;6408;59.388;17.798;2023-07-28T08:05:53;1.30;;;1.02;;
12687;SDS011;6408;59.388;17.798;2023-07-28T08:08:21;2.35;;;1.30;;
12687;SDS011;6408;59.388;17.798;2023-07-28T08:10:48;1.45;;;1.10;;
12687;SDS011;6408;59.388;17.798;2023-07-28T08:13:17;1.13;;;1.02;;
12687;SDS011;6408;59.388;17.798;2023-07-28T08:15:44;1.80;;;0.90;;
12687;SDS011;6408;59.388;17.798;2023-07-28T08:18:12;0.80;;;0.80;;
12687;SDS011;6408;59.388;17.798;2023-07-28T08:20:41;1.02;;;0.90;;
12687;SDS011;6408;59.388;17.798;2023-07-28T08:23:09;1.98;;;1.10;;
12687;SDS011;6408;59.388;17.798;2023-07-28T08:25:36;1.35;;;1.10;;
12687;SDS011;6408;59.388;17.798;2023-07-28T08:28:04;1.10;;;1.00;;
12687;SDS011;6408;59.388;17.798;2023-07-28T08:30:31;1.20;;;1.10;;
12687;SDS011;6408;59.388;17.798;2023-07-28T08:32:59;2.50;;;1.10;;
12687;SDS011;6408;59.388;17.798;2023-07-28T08:35:27;1.58;;;0.90;;
12687;SDS011;6408;59.388;17.798;2023-07-28T08:37:56;2.00;;;1.00;;
12687;SDS011;6408;59.388;17.798;2023-07-28T08:40:25;2.53;;;1.30;;
12687;SDS011;6408;59.388;17.798;2023-07-28T08:42:54;1.00;;;1.00;;
12687;SDS011;6408;59.388;17.798;2023-07-28T08:45:21;1.85;;;1.08;;
12687;SDS011;6408;59.388;17.798;2023-07-28T08:47:50;1.42;;;1.10;;
12687;SDS011;6408;59.388;17.798;2023-07-28T08:50:18;1.15;;;1.00;;
12687;SDS011;6408;59.388;17.798;2023-07-28T08:52:46;1.83;;;1.05;;
12687;SDS011;6408;59.388;17.798;2023-07-28T08:55:17;1.23;;;1.10;;
12687;SDS011;6408;59.388;17.798;2023-07-28T08:57:44;1.00;;;0.90;;
12687;SDS011;6408;59.388;17.798;2023-07-28T09:00:12;0.85;;;0.85;;
12687;SDS011;6408;59.388;17.798;2023-07-28T09:02:43;0.85;;;0.85;;
12687;SDS011;6408;59.388;17.798;2023-07-28T09:05:16;1.30;;;1.20;;
12687;SDS011;6408;59.388;17.798;2023-07-28T09:07:45;1.20;;;1.10;;
12687;SDS011;6408;59.388;17.798;2023-07-28T09:10:12;2.22;;;1.25;;
12687;SDS011;6408;59.388;17.798;2023-07-28T09:12:46;1.20;;;1.05;;
12687;SDS011;6408;59.388;17.798;2023-07-28T09:15:15;1.08;;;1.08;;
12687;SDS011;6408;59.388;17.798;2023-07-28T09:17:43;1.42;;;1.10;;
12687;SDS011;6408;59.388;17.798;2023-07-28T09:20:12;1.33;;;1.20;;
12687;SDS011;6408;59.388;17.798;2023-07-28T09:22:41;1.13;;;0.90;;
12687;SDS011;6408;59.388;17.798;2023-07-28T09:25:13;1.00;;;0.88;;
12687;SDS011;6408;59.388;17.798;2023-07-28T09:27:43;1.20;;;1.10;;
12687;SDS011;6408;59.388;17.798;2023-07-28T09:30:18;1.00;;;0.90;;
12687;SDS011;6408;59.388;17.798;2023-07-28T09:32:47;2.50;;;1.30;;
12687;SDS011;6408;59.388;17.798;2023-07-28T09:35:15;2.00;;;1.00;;
12687;SDS011;6408;59.388;17.798;2023-07-28T09:37:43;1.40;;;1.10;;
12687;SDS011;6408;59.388;17.798;2023-07-28T09:40:12;1.00;;;0.90;;
12687;SDS011;6408;59.388;17.798;2023-07-28T09:42:41;0.90;;;0.90;;
12687;SDS011;6408;59.388;17.798;2023-07-28T09:45:16;0.93;;;0.88;;
12687;SDS011;6408;59.388;17.798;2023-07-28T09:47:45;0.88;;;0.88;;
12687;SDS011;6408;59.388;17.798;2023-07-28T09:50:14;1.17;;;1.08;;
12687;SDS011;6408;59.388;17.798;2023-07-28T09:52:43;1.35;;;0.85;;
12687;SDS011;6408;59.388;17.798;2023-07-28T09:55:13;2.05;;;0.90;;
12687;SDS011;6408;59.388;17.798;2023-07-28T09:57:43;1.48;;;1.08;;
12687;SDS011;6408;59.388;17.798;2023-07-28T10:00:13;0.90;;;0.90;;
12687;SDS011;6408;59.388;17.798;2023-07-28T10:02:45;1.67;;;0.90;;
12687;SDS011;6408;59.388;17.798;2023-07-28T10:05:13;0.80;;;0.80;;
12687;SDS011;6408;59.388;17.798;2023-07-28T10:07:42;1.08;;;0.90;;
12687;SDS011;6408;59.388;17.798;2023-07-28T10:10:11;0.88;;;0.88;;
12687;SDS011;6408;59.388;17.798;2023-07-28T10:12:40;0.80;;;0.80;;
12687;SDS011;6408;59.388;17.798;2023-07-28T10:15:11;1.27;;;0.90;;
12687;SDS011;6408;59.388;17.798;2023-07-28T10:17:44;0.90;;;0.90;;
12687;SDS011;6408;59.388;17.798;2023-07-28T10:20:29;1.02;;;0.80;;
12687;SDS011;6408;59.388;17.798;2023-07-28T10:23:04;1.00;;;0.90;;
12687;SDS011;6408;59.388;17.798;2023-07-28T10:25:33;0.70;;;0.70;;
12687;SDS011;6408;59.388;17.798;2023-07-28T10:28:01;0.80;;;0.80;;
12687;SDS011;6408;59.388;17.798;2023-07-28T10:30:34;0.55;;;0.55;;
12687;SDS011;6408;59.388;17.798;2023-07-28T10:33:28;0.73;;;0.63;;
12687;SDS011;6408;59.388;17.798;2023-07-28T10:35:57;1.05;;;0.60;;
12687;SDS011;6408;59.388;17.798;2023-07-28T10:38:28;1.05;;;0.80;;
12687;SDS011;6408;59.388;17.798;2023-07-28T10:41:07;0.80;;;0.80;;
12687;SDS011;6408;59.388;17.798;2023-07-28T10:43:35;0.90;;;0.80;;
12687;SDS011;6408;59.388;17.798;2023-07-28T10:46:04;2.50;;;1.00;;
12687;SDS011;6408;59.388;17.798;2023-07-28T10:48:35;4.13;;;1.70;;
12687;SDS011;6408;59.388;17.798;2023-07-28T10:51:04;3.47;;;1.30;;
12687;SDS011;6408;59.388;17.798;2023-07-28T10:53:32;3.22;;;1.48;;
12687;SDS011;6408;59.388;17.798;2023-07-28T10:56:01;3.15;;;1.30;;
12687;SDS011;6408;59.388;17.798;2023-07-28T10:58:31;6.75;;;1.70;;
12687;SDS011;6408;59.388;17.798;2023-07-28T11:01:00;3.85;;;1.70;;
12687;SDS011;6408;59.388;17.798;2023-07-28T11:03:28;3.45;;;1.58;;
12687;SDS011;6408;59.388;17.798;2023-07-28T11:05:58;4.50;;;1.42;;
12687;SDS011;6408;59.388;17.798;2023-07-28T11:08:25;3.92;;;1.20;;
12687;SDS011;6408;59.388;17.798;2023-07-28T11:10:53;1.67;;;1.10;;
12687;SDS011;6408;59.388;17.798;2023-07-28T11:13:20;1.92;;;0.93;;
12687;SDS011;6408;59.388;17.798;2023-07-28T11:15:50;2.38;;;1.10;;
12687;SDS011;6408;59.388;17.798;2023-07-28T11:18:18;2.45;;;1.20;;
12687;SDS011;6408;59.388;17.798;2023-07-28T11:20:46;1.55;;;0.98;;
12687;SDS011;6408;59.388;17.798;2023-07-28T11:23:15;2.83;;;1.20;;
12687;SDS011;6408;59.388;17.798;2023-07-28T11:25:42;1.42;;;0.85;;
12687;SDS011;6408;59.388;17.798;2023-07-28T11:28:12;1.80;;;1.15;;
12687;SDS011;6408;59.388;17.798;2023-07-28T11:30:40;1.38;;;1.02;;
12687;SDS011;6408;59.388;17.798;2023-07-28T11:33:09;3.65;;;1.08;;
12687;SDS011;6408;59.388;17.798;2023-07-28T11:35:38;1.10;;;1.00;;
12687;SDS011;6408;59.388;17.798;2023-07-28T11:38:06;1.20;;;1.10;;
12687;SDS011;6408;59.388;17.798;2023-07-28T11:40:37;5.28;;;1.33;;
12687;SDS011;6408;59.388;17.798;2023-07-28T11:43:04;2.35;;;1.30;;
12687;SDS011;6408;59.388;17.798;2023-07-28T11:45:32;1.48;;;1.25;;
12687;SDS011;6408;59.388;17.798;2023-07-28T11:48:02;1.95;;;1.45;;
12687;SDS011;6408;59.388;17.798;2023-07-28T11:50:34;1.45;;;1.35;;
12687;SDS011;6408;59.388;17.798;2023-07-28T11:53:04;2.47;;;1.33;;
12687;SDS011;6408;59.388;17.798;2023-07-28T11:55:33;1.60;;;1.30;;
12687;SDS011;6408;59.388;17.798;2023-07-28T11:58:03;2.85;;;1.27;;
12687;SDS011;6408;59.388;17.798;2023-07-28T12:00:33;2.50;;;1.23;;
12687;SDS011;6408;59.388;17.798;2023-07-28T12:03:03;2.38;;;1.58;;
12687;SDS011;6408;59.388;17.798;2023-07-28T12:05:31;2.42;;;1.13;;
12687;SDS011;6408;59.388;17.798;2023-07-28T12:08:00;1.35;;;1.20;;
12687;SDS011;6408;59.388;17.798;2023-07-28T12:10:28;2.50;;;1.40;;
12687;SDS011;6408;59.388;17.798;2023-07-28T12:12:57;2.25;;;1.25;;
12687;SDS011;6408;59.388;17.798;2023-07-28T12:15:31;1.30;;;1.20;;
12687;SDS011;6408;59.388;17.798;2023-07-28T12:18:03;2.08;;;1.17;;
12687;SDS011;6408;59.388;17.798;2023-07-28T12:20:37;1.02;;;0.80;;
12687;SDS011;6408;59.388;17.798;2023-07-28T12:23:07;2.47;;;1.23;;
12687;SDS011;6408;59.388;17.798;2023-07-28T12:25:35;2.05;;;1.33;;
12687;SDS011;6408;59.388;17.798;2023-07-28T12:28:03;2.97;;;1.20;;
12687;SDS011;6408;59.388;17.798;2023-07-28T12:30:34;1.10;;;1.00;;
12687;SDS011;6408;59.388;17.798;2023-07-28T12:33:02;2.45;;;1.20;;
12687;SDS011;6408;59.388;17.798;2023-07-28T12:35:30;1.92;;;1.20;;
12687;SDS011;6408;59.388;17.798;2023-07-28T12:37:59;1.48;;;1.20;;
12687;SDS011;6408;59.388;17.798;2023-07-28T12:40:29;1.40;;;1.20;;
12687;SDS011;6408;59.388;17.798;2023-07-28T12:42:58;2.25;;;1.40;;
12687;SDS011;6408;59.388;17.798;2023-07-28T12:45:27;1.40;;;1.10;;
12687;SDS011;6408;59.388;17.798;2023-07-28T12:47:56;2.30;;;1.17;;
12687;SDS011;6408;59.388;17.798;2023-07-28T12:50:24;1.73;;;1.20;;
12687;SDS011;6408;59.388;17.798;2023-07-28T12:52:52;1.63;;;1.15;;
12687;SDS011;6408;59.388;17.798;2023-07-28T12:55:20;2.10;;;1.10;;
12687;SDS011;6408;59.388;17.798;2023-07-28T12:57:48;2.80;;;1.30;;
12687;SDS011;6408;59.388;17.798;2023-07-28T13:00:15;1.38;;;1.27;;
12687;SDS011;6408;59.388;17.798;2023-07-28T13:02:43;2.38;;;1.15;;
12687;SDS011;6408;59.388;17.798;2023-07-28T13:05:13;1.70;;;1.30;;
12687;SDS011;6408;59.388;17.798;2023-07-28T13:07:42;1.98;;;1.10;;
12687;SDS011;6408;59.388;17.798;2023-07-28T13:10:10;2.08;;;1.17;;
12687;SDS011;6408;59.388;17.798;2023-07-28T13:12:38;1.25;;;0.98;;
12687;SDS011;6408;59.388;17.798;2023-07-28T13:15:06;2.85;;;1.10;;
12687;SDS011;6408;59.388;17.798;2023-07-28T13:17:34;1.20;;;1.02;;
12687;SDS011;6408;59.388;17.798;2023-07-28T13:20:02;1.55;;;1.02;;
12687;SDS011;6408;59.388;17.798;2023-07-28T13:22:33;1.95;;;1.23;;
12687;SDS011;6408;59.388;17.798;2023-07-28T13:25:00;1.80;;;1.10;;
12687;SDS011;6408;59.388;17.798;2023-07-28T13:27:28;0.95;;;0.88;;
12687;SDS011;6408;59.388;17.798;2023-07-28T13:29:56;2.25;;;1.05;;
12687;SDS011;6408;59.388;17.798;2023-07-28T13:32:24;1.58;;;1.00;;
12687;SDS011;6408;59.388;17.798;2023-07-28T13:34:52;2.25;;;1.08;;
12687;SDS011;6408;59.388;17.798;2023-07-28T13:37:20;1.50;;;1.10;;
12687;SDS011;6408;59.388;17.798;2023-07-28T13:39:49;1.23;;;1.00;;
12687;SDS011;6408;59.388;17.798;2023-07-28T13:42:17;1.58;;;1.10;;
12687;SDS011;6408;59.388;17.798;2023-07-28T13:44:45;1.60;;;0.95;;
12687;SDS011;6408;59.388;17.798;2023-07-28T13:47:12;1.80;;;1.10;;
12687;SDS011;6408;59.388;17.798;2023-07-28T13:49:40;3.85;;;1.15;;
12687;SDS011;6408;59.388;17.798;2023-07-28T13:52:07;1.00;;;0.90;;
12687;SDS011;6408;59.388;17.798;2023-07-28T13:54:34;1.25;;;1.15;;
12687;SDS011;6408;59.388;17.798;2023-07-28T13:57:04;3.20;;;1.33;;
12687;SDS011;6408;59.388;17.798;2023-07-28T13:59:32;2.35;;;1.55;;
12687;SDS011;6408;59.388;17.798;2023-07-28T14:01:59;1.52;;;1.20;;
12687;SDS011;6408;59.388;17.798;2023-07-28T14:04:27;2.28;;;1.17;;
12687;SDS011;6408;59.388;17.798;2023-07-28T14:06:54;1.40;;;1.30;;
12687;SDS011;6408;59.388;17.798;2023-07-28T14:09:23;3.30;;;1.48;;
12687;SDS011;6408;59.388;17.798;2023-07-28T14:11:51;1.38;;;0.90;;
12687;SDS011;6408;59.388;17.798;2023-07-28T14:14:21;1.33;;;1.20;;
12687;SDS011;6408;59.388;17.798;2023-07-28T14:16:48;2.15;;;1.55;;
12687;SDS011;6408;59.388;17.798;2023-07-28T14:19:16;1.20;;;1.08;;
12687;SDS011;6408;59.388;17.798;2023-07-28T14:21:44;1.20;;;1.10;;
12687;SDS011;6408;59.388;17.798;2023-07-28T14:24:11;2.03;;;1.20;;
12687;SDS011;6408;59.388;17.798;2023-07-28T14:26:39;1.85;;;1.38;;
12687;SDS011;6408;59.388;17.798;2023-07-28T14:29:06;1.98;;;1.35;;
12687;SDS011;6408;59.388;17.798;2023-07-28T14:31:35;3.40;;;1.30;;
12687;SDS011;6408;59.388;17.798;2023-07-28T14:34:03;1.35;;;1.25;;
12687;SDS011;6408;59.388;17.798;2023-07-28T14:36:30;2.92;;;1.00;;
12687;SDS011;6408;59.388;17.798;2023-07-28T14:38:59;3.08;;;1.00;;
12687;SDS011;6408;59.388;17.798;2023-07-28T14:41:27;1.23;;;1.13;;
12687;SDS011;6408;59.388;17.798;2023-07-28T14:43:54;1.25;;;1.05;;
12687;SDS011;6408;59.388;17.798;2023-07-28T14:46:22;1.85;;;1.10;;
12687;SDS011;6408;59.388;17.798;2023-07-28T14:48:52;1.20;;;1.10;;
12687;SDS011;6408;59.388;17.798;2023-07-28T14:51:19;1.98;;;1.10;;
12687;SDS011;6408;59.388;17.798;2023-07-28T14:53:48;1.80;;;1.20;;
12687;SDS011;6408;59.388;17.798;2023-07-28T14:56:15;2.03;;;1.13;;